Time;durP1;ratioP1;P1;durP2;ratioP2;P2;SDS_P1;SDS_P2;PMS_P1;PMS_P2;Temp;Humidity;BMP_temperature;BMP_pressure;BME280_temperature;BME280_humidity;BME280_pressure;Samples;Min_cycle;Max_cycle;Signal;HPM_P1;HPM_P2
2022/04/28 00:01:22;;;;;;;4.67;1.63;;;4.10;99.90;3.20;101376;;;;602801;238;24078;-82
2022/04/28 00:03:51;;;;;;;2.67;1.70;;;4.00;99.90;3.20;101374;;;;603394;238;24083;-83
2022/04/28 00:06:18;;;;;;;3.03;2.00;;;4.00;99.90;3.20;101377;;;;603486;238;24044;-80
2022/04/28 00:08:46;;;;;;;2.90;1.93;;;4.00;99.90;3.20;101377;;;;603624;238;24073;-80
2022/04/28 00:11:17;;;;;;;11.63;3.07;;;4.10;99.90;3.20;101381;;;;603594;238;24074;-80
2022/04/28 00:13:42;;;;;;;8.43;2.70;;;4.10;99.90;3.30;101370;;;;603052;238;24085;-80
2022/04/28 00:16:10;;;;;;;8.73;3.33;;;4.10;99.90;3.30;101371;;;;603210;238;24082;-81
2022/04/28 00:18:38;;;;;;;5.30;2.83;;;4.10;99.90;3.30;101371;;;;603307;238;24066;-82
2022/04/28 00:21:06;;;;;;;6.43;2.70;;;4.20;99.90;3.30;101367;;;;603427;238;24078;-82
2022/04/28 00:23:36;;;;;;;8.00;3.23;;;4.20;99.90;3.40;101366;;;;603150;238;24133;-83
2022/04/28 00:26:04;;;;;;;9.90;3.23;;;4.20;99.90;3.40;101364;;;;602824;238;25107;-83
2022/04/28 00:28:29;;;;;;;7.03;3.60;;;4.30;99.90;3.50;101360;;;;603074;238;24023;-82
2022/04/28 00:30:57;;;;;;;7.87;3.50;;;4.30;99.90;3.50;101355;;;;603374;238;24049;-82
2022/04/28 00:33:27;;;;;;;12.17;4.20;;;4.40;99.90;3.50;101360;;;;603111;238;24061;-80
2022/04/28 00:35:56;;;;;;;8.07;3.10;;;4.40;99.90;3.50;101366;;;;604296;236;24118;-82
2022/04/28 00:38:21;;;;;;;9.50;3.20;;;4.40;99.90;3.50;101360;;;;603904;238;24076;-81
2022/04/28 00:40:51;;;;;;;8.43;3.60;;;4.40;99.90;3.60;101374;;;;603956;238;24049;-81
2022/04/28 00:43:19;;;;;;;10.07;3.33;;;4.40;99.90;3.60;101368;;;;603053;237;24031;-80
2022/04/28 00:45:51;;;;;;;8.97;3.83;;;4.50;99.90;3.60;101367;;;;603270;238;24086;-82
2022/04/28 00:51:02;;;;;;;8.40;3.43;;;4.50;99.90;3.70;101385;;;;603219;238;24054;-80
2022/04/28 00:53:33;;;;;;;17.45;7.40;;;4.50;99.90;3.70;101376;;;;597590;238;35045;-80
2022/04/28 00:56:03;;;;;;;15.73;5.87;;;4.60;99.90;3.80;101370;;;;602926;238;24034;-81
2022/04/28 00:58:28;;;;;;;8.97;4.10;;;4.70;99.90;3.80;101373;;;;602797;238;24097;-81
2022/04/28 01:00:56;;;;;;;12.07;4.47;;;4.70;99.90;3.90;101389;;;;602745;238;24058;-82
2022/04/28 01:03:24;;;;;;;11.90;4.17;;;4.80;99.90;3.90;101389;;;;602928;238;24108;-82
2022/04/28 01:05:52;;;;;;;6.27;3.50;;;4.90;99.90;3.90;101379;;;;603225;238;24051;-82
2022/04/28 01:08:20;;;;;;;13.77;4.53;;;4.80;99.90;3.90;101380;;;;602897;238;24112;-80
2022/04/28 01:10:51;;;;;;;9.53;3.83;;;4.90;99.90;4.00;101380;;;;603041;238;24093;-81
2022/04/28 01:13:20;;;;;;;8.23;3.83;;;4.90;99.90;4.00;101381;;;;602638;238;24038;-80
2022/04/28 01:15:47;;;;;;;8.23;3.17;;;4.90;99.90;4.00;101378;;;;602031;238;24071;-81
2022/04/28 01:18:15;;;;;;;7.63;4.17;;;4.90;99.90;4.00;101374;;;;602218;238;24044;-82
2022/04/28 01:20:40;;;;;;;10.20;4.00;;;5.00;99.90;4.00;101366;;;;602362;238;24119;-82
2022/04/28 01:23:11;;;;;;;6.70;3.37;;;4.90;99.90;4.00;101364;;;;602938;238;24090;-81
2022/04/28 01:25:36;;;;;;;10.07;4.23;;;4.90;99.90;4.00;101361;;;;602463;238;24144;-82
2022/04/28 01:28:08;;;;;;;25.67;13.77;;;5.00;99.90;4.00;101364;;;;602886;238;24084;-82
2022/04/28 01:30:35;;;;;;;27.90;11.97;;;5.00;99.90;4.00;101362;;;;601844;238;24042;-81
2022/04/28 01:33:01;;;;;;;24.57;8.40;;;4.90;99.90;4.00;101368;;;;601936;238;24040;-80
2022/04/28 01:35:31;;;;;;;17.00;8.33;;;4.90;99.90;4.00;101352;;;;602899;238;24056;-80
2022/04/28 01:37:59;;;;;;;13.87;6.90;;;4.90;99.90;4.00;101343;;;;602303;238;24049;-80
2022/04/28 01:40:24;;;;;;;12.27;5.37;;;4.90;99.90;4.00;101337;;;;602508;238;24071;-81
2022/04/28 01:42:55;;;;;;;9.30;5.50;;;4.90;99.90;3.90;101343;;;;602987;238;24148;-80
2022/04/28 01:45:21;;;;;;;15.83;4.80;;;4.80;99.90;3.90;101351;;;;602224;238;24073;-81
2022/04/28 01:47:49;;;;;;;8.03;4.03;;;4.80;99.90;3.80;101339;;;;604624;236;24096;-81
2022/04/28 01:50:16;;;;;;;6.13;3.67;;;4.70;99.90;3.80;101341;;;;603692;238;24074;-81
2022/04/28 01:55:34;;;;;;;8.30;3.70;;;4.60;99.90;3.60;101335;;;;603333;238;24075;-81
2022/04/28 01:58:02;;;;;;;8.03;2.80;;;4.60;99.90;3.60;101331;;;;603525;238;24049;-82
2022/04/28 02:00:33;;;;;;;11.37;4.50;;;4.60;99.90;3.50;101339;;;;603139;238;24172;-82
2022/04/28 02:02:57;;;;;;;11.33;5.90;;;4.50;99.90;3.50;101335;;;;603489;238;24037;-82
2022/04/28 02:05:29;;;;;;;15.30;5.20;;;4.50;99.90;3.50;101334;;;;602976;238;24093;-82
2022/04/28 02:07:53;;;;;;;9.37;4.90;;;4.40;99.90;3.40;101338;;;;602784;238;24119;-82
2022/04/28 02:10:21;;;;;;;10.30;3.60;;;4.40;99.90;3.40;101351;;;;602580;238;24043;-80
2022/04/28 02:12:52;;;;;;;7.63;3.47;;;4.30;99.90;3.30;101339;;;;603164;238;24047;-82
2022/04/28 02:15:18;;;;;;;5.43;2.80;;;4.30;99.90;3.30;101342;;;;602729;238;24075;-81
2022/04/28 02:17:49;;;;;;;3.67;2.93;;;4.20;99.90;3.30;101340;;;;603167;238;24046;-82
2022/04/28 02:20:16;;;;;;;6.73;3.37;;;4.20;99.90;3.30;101344;;;;602485;238;24071;-81
2022/04/28 02:22:44;;;;;;;5.07;3.73;;;4.20;99.90;3.20;101342;;;;603366;238;24081;-81
2022/04/28 02:25:12;;;;;;;3.43;2.30;;;4.20;99.90;3.20;101343;;;;603362;238;24066;-82
2022/04/28 02:27:40;;;;;;;7.43;3.17;;;4.20;99.90;3.20;101350;;;;603160;238;24047;-80
2022/04/28 02:30:11;;;;;;;4.47;2.90;;;4.20;99.90;3.20;101335;;;;603461;238;24083;-81
2022/04/28 02:35:21;;;;;;;14.07;6.57;;;4.20;99.90;3.30;101330;;;;603195;238;24054;-81
2022/04/28 02:37:49;;;;;;;18.30;8.07;;;4.20;99.90;3.30;101333;;;;603055;238;24027;-80
2022/04/28 02:40:17;;;;;;;8.80;4.90;;;4.30;99.90;3.40;101335;;;;603026;238;24039;-82
2022/04/28 02:42:49;;;;;;;8.53;4.23;;;4.30;99.90;3.40;101336;;;;602975;238;24070;-81
2022/04/28 02:45:13;;;;;;;6.50;4.00;;;4.40;99.90;3.50;101340;;;;602428;238;24083;-80
2022/04/28 02:47:41;;;;;;;12.30;4.27;;;4.40;99.90;3.50;101336;;;;602909;238;24055;-80
2022/04/28 02:50:11;;;;;;;8.07;3.60;;;4.50;99.90;3.60;101345;;;;602671;238;24077;-81
2022/04/28 02:52:37;;;;;;;8.40;4.23;;;4.50;99.90;3.60;101334;;;;602932;238;24043;-79
2022/04/28 02:55:09;;;;;;;4.93;3.30;;;4.50;99.90;3.60;101337;;;;602806;238;24095;-80
2022/04/28 02:57:33;;;;;;;6.67;2.93;;;4.60;99.90;3.60;101337;;;;603399;236;24048;-80
2022/04/28 03:00:04;;;;;;;5.00;3.10;;;4.60;99.90;3.60;101342;;;;604380;237;24042;-80
2022/04/28 03:02:30;;;;;;;4.43;2.83;;;4.60;99.90;3.60;101340;;;;603771;238;24051;-79
2022/04/28 03:04:57;;;;;;;8.90;2.80;;;4.60;99.90;3.70;101346;;;;603872;238;24074;-80
2022/04/28 03:12:56;;;;;;;2.93;2.50;;;4.70;99.90;3.70;101346;;;;603634;237;24031;-81
2022/04/28 03:15:25;;;;;;;5.63;3.60;;;4.70;99.90;3.80;101341;;;;603379;238;24135;-79
2022/04/28 03:17:55;;;;;;;7.00;4.30;;;4.70;99.90;3.70;101344;;;;598053;238;34992;-80
2022/04/28 03:20:19;;;;;;;5.93;3.60;;;4.70;99.90;3.70;101342;;;;603358;238;24039;-81
2022/04/28 03:22:50;;;;;;;7.43;3.00;;;4.70;99.90;3.70;101334;;;;602999;238;24054;-80
2022/04/28 03:25:15;;;;;;;7.93;3.67;;;4.80;99.90;3.80;101334;;;;602471;238;24070;-81
2022/04/28 03:27:43;;;;;;;5.03;2.73;;;4.70;99.90;3.80;101334;;;;602812;238;24081;-81
2022/04/28 03:30:11;;;;;;;5.80;3.20;;;4.80;99.90;3.80;101340;;;;602992;238;24060;-80
2022/04/28 03:32:39;;;;;;;10.23;2.63;;;4.80;99.90;3.80;101335;;;;602810;238;24098;-80
2022/04/28 03:35:11;;;;;;;4.27;2.70;;;4.80;99.90;3.80;101342;;;;602970;238;24084;-81
2022/04/28 03:37:35;;;;;;;4.77;2.60;;;4.80;99.90;3.80;101350;;;;603042;237;24054;-79
2022/04/28 03:40:06;;;;;;;7.53;2.30;;;4.80;99.90;3.80;101348;;;;603175;238;24046;-80
2022/04/28 03:42:31;;;;;;;7.53;2.27;;;4.80;99.90;3.80;101341;;;;602795;238;24074;-79
2022/04/28 03:44:59;;;;;;;2.20;1.67;;;4.80;99.90;3.90;101348;;;;603158;238;24057;-80
2022/04/28 03:47:31;;;;;;;2.63;1.60;;;4.90;99.90;4.00;101356;;;;602969;238;24041;-81
2022/04/28 03:49:59;;;;;;;1.87;1.50;;;4.90;99.90;4.00;101346;;;;602086;238;24069;-81
2022/04/28 03:52:23;;;;;;;3.73;1.47;;;5.00;99.90;4.10;101356;;;;602048;238;24092;-81
2022/04/28 03:54:51;;;;;;;5.17;1.70;;;5.00;99.90;4.10;101357;;;;602543;238;24082;-80
2022/04/28 03:57:19;;;;;;;3.33;1.57;;;5.10;99.90;4.20;101357;;;;602434;238;24046;-79
2022/04/28 03:59:47;;;;;;;1.43;1.33;;;5.10;99.90;4.20;101352;;;;602552;238;24054;-80
2022/04/28 04:02:15;;;;;;;2.63;1.27;;;5.20;99.90;4.20;101358;;;;602512;238;24067;-81
2022/04/28 04:04:43;;;;;;;3.57;1.47;;;5.20;99.90;4.30;101361;;;;602439;238;24106;-81
2022/04/28 04:07:11;;;;;;;2.00;1.53;;;5.20;99.90;4.30;101365;;;;602606;238;24036;-81
2022/04/28 04:09:38;;;;;;;7.22;2.40;;;5.30;99.90;4.50;101361;;;;598183;236;34886;-82
2022/04/28 04:12:10;;;;;;;4.03;2.27;;;5.40;99.90;4.50;101360;;;;603964;237;24041;-81
2022/04/28 04:14:34;;;;;;;2.93;1.77;;;5.50;99.90;4.60;101361;;;;602989;238;24093;-81
2022/04/28 04:17:02;;;;;;;4.27;1.90;;;5.60;99.90;4.80;101371;;;;603844;238;24038;-81
2022/04/28 04:19:30;;;;;;;3.53;2.27;;;5.80;99.90;4.90;101366;;;;603202;238;24049;-81
2022/04/28 04:21:58;;;;;;;3.53;2.20;;;5.80;99.90;5.00;101371;;;;603462;238;24068;-81
2022/04/28 04:24:26;;;;;;;7.13;2.70;;;5.90;99.90;5.00;101367;;;;603361;238;24082;-81
2022/04/28 04:26:56;;;;;;;3.70;2.17;;;6.00;99.90;5.00;101375;;;;603546;238;24034;-81
2022/04/28 04:29:21;;;;;;;11.97;5.30;;;5.90;99.90;5.00;101376;;;;602865;238;24043;-82
2022/04/28 04:34:35;;;;;;;65.80;27.07;;;6.00;99.90;5.10;101370;;;;603310;238;24081;-82
2022/04/28 04:37:03;;;;;;;23.50;11.47;;;6.10;99.90;5.30;101376;;;;602855;238;24103;-82
2022/04/28 04:39:31;;;;;;;21.07;10.17;;;6.20;99.90;5.50;101367;;;;602941;238;24086;-81
2022/04/28 04:41:59;;;;;;;12.37;6.63;;;6.40;99.90;5.70;101378;;;;602826;238;24073;-81
2022/04/28 04:44:27;;;;;;;4.53;2.53;;;6.60;99.90;6.10;101380;;;;602754;238;24094;-81
2022/04/28 04:46:55;;;;;;;4.47;2.70;;;6.90;99.90;6.90;101386;;;;602608;238;24093;-81
2022/04/28 04:49:23;;;;;;;4.47;3.13;;;8.90;99.90;8.40;101386;;;;591488;238;24038;-81
2022/04/28 04:51:52;;;;;;;3.13;2.20;;;10.60;99.90;10.10;101396;;;;591734;238;24050;-80
2022/04/28 04:54:24;;;;;;;3.17;2.00;;;12.40;99.90;11.70;101403;;;;601410;238;24047;-80
2022/04/28 04:56:48;;;;;;;1.30;1.20;;;12.30;99.90;13.20;101414;;;;591686;238;24057;-81
2022/04/28 04:59:16;;;;;;;5.10;1.60;;;13.90;99.90;14.70;101413;;;;601418;238;24031;-81
2022/04/28 05:01:45;;;;;;;1.67;1.50;;;15.50;99.90;16.00;101419;;;;601227;238;25099;-80
2022/04/28 05:04:13;;;;;;;2.77;1.40;;;16.90;99.90;17.10;101426;;;;601416;238;24040;-81
2022/04/28 05:06:41;;;;;;;1.87;1.73;;;18.00;99.90;18.20;101423;;;;601384;238;24087;-81
2022/04/28 05:09:09;;;;;;;3.07;1.63;;;19.10;99.90;19.10;101425;;;;601552;238;24009;-82
2022/04/28 05:11:38;;;;;;;3.93;1.30;;;21.00;99.90;20.00;101425;;;;601360;238;24002;-81
2022/04/28 05:14:09;;;;;;;4.40;1.60;;;21.80;99.90;20.80;101416;;;;601286;238;24043;-81
2022/04/28 05:16:35;;;;;;;1.57;1.30;;;21.80;99.90;21.30;101418;;;;587712;238;24039;-81
2022/04/28 05:19:02;;;;;;;1.10;1.00;;;22.40;99.90;21.90;101417;;;;591845;238;24112;-81
2022/04/28 05:21:30;;;;;;;1.77;1.27;;;23.00;99.90;22.70;101427;;;;602498;237;23035;-81
2022/04/28 05:23:58;;;;;;;1.30;1.20;;;23.70;97.80;23.30;101421;;;;602577;237;24009;-81
2022/04/28 05:26:26;;;;;;;1.70;0.97;;;24.30;85.00;23.70;101419;;;;602349;238;24063;-81
2022/04/28 05:28:54;;;;;;;2.10;1.10;;;24.80;76.90;24.30;101414;;;;602146;238;23035;-81
2022/04/28 05:31:22;;;;;;;3.00;0.77;;;25.30;65.00;24.50;101422;;;;601834;238;23076;-80
2022/04/28 05:33:50;;;;;;;0.90;0.87;;;25.60;69.20;24.90;101426;;;;601993;238;24084;-81
2022/04/28 05:36:18;;;;;;;0.97;0.73;;;26.00;67.50;25.30;101424;;;;601924;237;24039;-80
2022/04/28 05:38:46;;;;;;;1.43;1.10;;;26.50;54.70;25.50;101428;;;;602246;238;23069;-80
2022/04/28 05:41:15;;;;;;;1.27;0.83;;;26.90;48.40;26.00;101422;;;;602046;238;23047;-80
2022/04/28 05:46:29;;;;;;;0.73;0.70;;;27.10;49.40;26.10;101435;;;;592342;238;23113;-79
2022/04/28 05:48:57;;;;;;;1.27;0.80;;;27.30;50.30;26.60;101436;;;;592390;238;24015;-80
2022/04/28 05:51:25;;;;;;;0.77;0.70;;;27.50;49.60;27.20;101446;;;;592811;238;23042;-80
2022/04/28 05:53:53;;;;;;;1.47;0.53;;;28.10;52.80;27.60;101460;;;;602185;238;24107;-80
2022/04/28 05:56:21;;;;;;;1.05;0.80;;;28.50;50.20;28.20;101448;;;;592881;238;23029;-81
2022/04/28 05:58:49;;;;;;;1.80;1.00;;;29.00;44.40;28.40;101457;;;;602096;238;24042;-79
2022/04/28 06:01:17;;;;;;;2.73;1.20;;;29.60;42.80;28.70;101463;;;;592944;238;23102;-80
2022/04/28 06:03:45;;;;;;;1.27;0.90;;;29.60;42.70;29.20;101461;;;;602223;238;24049;-79
2022/04/28 06:06:13;;;;;;;0.75;0.75;;;30.10;45.40;29.70;101463;;;;601803;238;24128;-80
2022/04/28 06:08:42;;;;;;;2.60;0.65;;;31.20;41.30;30.40;101466;;;;601732;238;24079;-80
2022/04/28 06:11:10;;;;;;;1.08;0.68;;;31.10;41.10;30.90;101468;;;;601642;238;24127;-80
2022/04/28 06:13:38;;;;;;;0.68;0.62;;;31.70;39.50;31.40;101467;;;;601750;238;24073;-80
2022/04/28 06:16:06;;;;;;;0.95;0.60;;;32.30;37.50;31.50;101463;;;;601745;238;23072;-80
2022/04/28 06:18:33;;;;;;;1.45;0.55;;;32.50;37.60;31.60;101475;;;;592323;238;26246;-80
2022/04/28 06:21:01;;;;;;;1.70;0.77;;;32.60;38.30;32.00;101474;;;;601720;238;24125;-79
2022/04/28 06:23:29;;;;;;;0.80;0.75;;;32.80;39.30;32.40;101485;;;;601769;238;24076;-80
2022/04/28 06:26:00;;;;;;;1.55;0.98;;;33.20;38.20;32.80;101487;;;;601852;238;23080;-80
2022/04/28 06:28:25;;;;;;;1.85;1.17;;;33.50;37.80;33.00;101487;;;;592098;238;24026;-80
2022/04/28 06:30:53;;;;;;;1.42;0.80;;;33.80;36.80;33.40;101492;;;;601861;238;24075;-80
2022/04/28 06:33:22;;;;;;;1.90;1.10;;;34.30;34.80;33.70;101485;;;;603035;236;23053;-80
2022/04/28 06:35:50;;;;;;;1.25;0.85;;;34.30;34.80;34.10;101494;;;;603054;238;23046;-80
2022/04/28 06:38:17;;;;;;;1.42;0.80;;;34.70;34.40;34.40;101493;;;;593015;238;23082;-79
2022/04/28 06:40:45;;;;;;;0.88;0.70;;;35.10;34.20;34.70;101499;;;;602208;238;23079;-80
2022/04/28 06:43:13;;;;;;;1.50;1.40;;;35.40;32.20;34.90;101495;;;;602068;238;23075;-81
2022/04/28 06:46:11;;;;;;;3.75;0.82;;;35.60;32.00;34.80;101493;;;;601852;238;24030;-79
2022/04/28 06:48:09;;;;;;;0.93;0.82;;;35.60;31.70;34.70;101503;;;;600526;238;23150;-80
2022/04/28 06:50:38;;;;;;;1.23;1.10;;;35.70;31.50;34.80;101497;;;;601854;238;23110;-80
2022/04/28 06:53:06;;;;;;;1.87;1.08;;;36.00;31.70;35.20;101495;;;;601598;238;24056;-80
2022/04/28 06:55:34;;;;;;;6.85;5.80;;;36.00;31.70;35.70;101505;;;;601775;238;23059;-80
2022/04/28 06:58:02;;;;;;;2.42;1.52;;;36.30;31.80;35.90;101511;;;;601663;238;23049;-80
2022/04/28 07:00:30;;;;;;;1.42;1.33;;;36.50;31.20;36.20;101514;;;;601696;238;24060;-80
2022/04/28 07:02:58;;;;;;;2.55;1.80;;;36.70;30.30;36.60;101518;;;;601745;238;24053;-81
2022/04/28 07:05:26;;;;;;;1.95;1.33;;;37.10;29.60;36.90;101520;;;;601635;238;23075;-80
2022/04/28 07:07:54;;;;;;;1.27;1.10;;;37.30;29.80;37.00;101522;;;;592380;238;24139;-80
2022/04/28 07:10:22;;;;;;;3.87;1.10;;;37.60;29.00;36.60;101521;;;;601373;238;23098;-80
2022/04/28 07:12:51;;;;;;;2.85;0.80;;;37.50;29.10;36.80;101524;;;;601418;238;23039;-81
2022/04/28 07:15:19;;;;;;;1.20;1.10;;;37.90;28.40;37.30;101528;;;;601370;238;23034;-81
2022/04/28 07:17:48;;;;;;;2.25;1.10;;;38.10;28.50;37.50;101531;;;;601454;238;23068;-81
2022/04/28 07:20:16;;;;;;;1.20;1.10;;;38.00;28.50;37.70;101530;;;;601383;238;23079;-81
2022/04/28 07:22:44;;;;;;;2.95;1.12;;;38.30;28.40;37.90;101535;;;;601306;238;23053;-79
2022/04/28 07:25:12;;;;;;;1.10;1.00;;;38.60;27.90;37.80;101539;;;;601419;238;23024;-81
2022/04/28 07:27:40;;;;;;;3.58;1.00;;;38.60;28.50;38.20;101544;;;;601394;238;23040;-81
2022/04/28 07:30:08;;;;;;;2.35;1.17;;;38.80;28.00;38.00;101541;;;;601532;238;23094;-81
2022/04/28 07:32:35;;;;;;;1.17;1.05;;;38.80;27.30;37.80;101545;;;;592009;238;23047;-80
2022/04/28 07:35:03;;;;;;;1.10;1.10;;;38.70;27.70;37.70;101556;;;;601425;238;23033;-80
2022/04/28 07:37:32;;;;;;;1.35;1.12;;;38.60;27.20;37.80;101553;;;;592569;238;23062;-81
2022/04/28 07:40:00;;;;;;;1.25;1.15;;;38.60;27.10;37.70;101554;;;;592603;238;23074;-81
2022/04/28 07:42:28;;;;;;;2.05;1.85;;;38.50;27.00;37.40;101552;;;;601907;238;23089;-82
2022/04/28 07:44:56;;;;;;;1.55;0.80;;;38.30;26.60;37.10;101553;;;;603009;236;23108;-80
2022/04/28 07:47:26;;;;;;;1.35;1.23;;;38.00;26.70;37.20;101547;;;;602770;238;23097;-82
2022/04/28 07:49:52;;;;;;;1.45;1.10;;;38.10;26.20;37.10;101552;;;;602070;238;23083;-81
2022/04/28 07:52:20;;;;;;;1.00;0.98;;;38.10;25.20;37.10;101549;;;;602085;238;23072;-81
2022/04/28 07:54:47;;;;;;;2.08;1.20;;;38.00;24.50;37.00;101554;;;;601961;238;23089;-81
2022/04/28 07:57:15;;;;;;;0.70;0.70;;;37.90;24.70;36.30;101559;;;;592523;238;23083;-81
2022/04/28 07:59:43;;;;;;;0.70;0.70;;;37.50;24.30;35.80;101557;;;;601982;238;24129;-81
2022/04/28 08:02:14;;;;;;;2.22;0.90;;;37.10;24.20;35.80;101550;;;;601860;238;23113;-81
2022/04/28 08:04:39;;;;;;;1.45;1.00;;;36.90;25.20;36.40;101557;;;;601682;238;23054;-81
2022/04/28 08:07:07;;;;;;;2.40;1.15;;;37.10;25.60;37.00;101556;;;;601699;238;23040;-81
2022/04/28 08:09:35;;;;;;;0.85;0.73;;;37.60;24.80;37.00;101559;;;;601661;238;23023;-81
2022/04/28 08:12:05;;;;;;;1.15;1.15;;;38.00;25.80;37.40;101569;;;;601657;238;23048;-81
2022/04/28 08:14:32;;;;;;;1.30;1.08;;;38.60;24.50;38.10;101574;;;;592256;238;23043;-80
2022/04/28 08:17:00;;;;;;;0.73;0.70;;;38.60;24.50;38.10;101571;;;;601833;238;23048;-81
2022/04/28 08:19:32;;;;;;;2.62;0.95;;;38.80;24.40;38.40;101566;;;;601683;238;23090;-80
2022/04/28 08:21:56;;;;;;;0.90;0.90;;;39.10;24.50;38.00;101574;;;;600816;238;23056;-79
2022/04/28 08:24:24;;;;;;;1.73;0.98;;;39.00;24.30;38.00;101575;;;;601347;238;23045;-81
2022/04/28 08:26:54;;;;;;;2.37;0.80;;;39.00;23.90;37.50;101573;;;;601261;238;23050;-82
2022/04/28 08:29:20;;;;;;;1.10;1.10;;;38.90;24.30;37.70;101563;;;;601351;238;23047;-81
2022/04/28 08:31:52;;;;;;;1.40;1.00;;;38.90;25.10;38.10;101583;;;;601330;238;23030;-80
2022/04/28 08:34:17;;;;;;;0.98;0.90;;;39.20;25.10;37.90;101567;;;;591592;238;24116;-80
2022/04/28 08:36:44;;;;;;;1.08;1.00;;;39.10;24.40;37.40;101569;;;;591940;238;23048;-82
2022/04/28 08:39:12;;;;;;;2.12;1.23;;;38.40;24.60;36.80;101566;;;;601811;238;23107;-82
2022/04/28 08:41:45;;;;;;;1.65;0.73;;;37.80;25.10;36.10;101573;;;;592434;238;23042;-81
2022/04/28 08:44:09;;;;;;;0.90;0.85;;;37.80;24.90;35.90;101573;;;;592194;238;23083;-82
2022/04/28 08:46:52;;;;;;;0.90;0.90;;;37.40;25.20;36.00;101572;;;;601267;238;24069;-81
2022/04/28 08:49:20;;;;;;;0.88;0.88;;;37.30;25.30;36.00;101567;;;;601387;238;23112;-81
2022/04/28 08:51:47;;;;;;;0.60;0.60;;;37.30;24.60;35.80;101571;;;;591810;238;23051;-81
2022/04/28 08:56:51;;;;;;;0.82;0.68;;;37.00;24.10;35.20;101572;;;;587790;243;24125;-78
2022/04/28 08:59:22;;;;;;;0.70;0.70;;;36.60;24.40;35.40;101578;;;;576842;245;23109;-81
2022/04/28 09:01:50;;;;;;;1.02;0.70;;;36.60;24.00;35.60;101567;;;;584641;245;23186;-80
2022/04/28 09:04:17;;;;;;;0.70;0.70;;;36.80;23.60;35.90;101570;;;;585018;241;23138;-79
2022/04/28 09:06:42;;;;;;;0.65;0.65;;;37.10;23.80;35.80;101572;;;;584732;245;23114;-78
2022/04/28 09:09:16;;;;;;;1.87;0.88;;;37.10;23.70;36.00;101568;;;;576226;245;23136;-81
2022/04/28 09:11:46;;;;;;;0.70;0.70;;;37.30;24.00;36.40;101573;;;;585221;244;23113;-84
2022/04/28 09:14:20;;;;;;;1.70;1.00;;;37.70;23.80;36.50;101579;;;;576443;245;23104;-85
2022/04/28 09:16:45;;;;;;;2.05;0.77;;;38.00;23.30;36.40;101574;;;;574955;245;23107;-82
2022/04/28 09:19:29;;;;;;;0.60;0.60;;;38.00;23.50;36.50;101580;;;;584702;245;23131;-80
2022/04/28 09:21:54;;;;;;;0.98;0.90;;;38.00;23.50;36.40;101576;;;;575609;245;23119;-85
2022/04/28 09:24:21;;;;;;;2.80;1.00;;;38.20;23.80;36.40;101578;;;;575396;245;23100;-78
2022/04/28 09:26:53;;;;;;;1.50;1.02;;;38.30;23.30;36.20;101581;;;;576106;245;23146;-79
2022/04/28 09:29:20;;;;;;;0.98;0.90;;;38.30;23.50;35.90;101583;;;;575434;245;23104;-79
2022/04/28 09:31:49;;;;;;;1.40;1.30;;;38.10;23.60;35.40;101582;;;;575395;245;23135;-81
2022/04/28 09:34:13;;;;;;;1.67;0.98;;;37.60;24.50;35.50;101591;;;;575265;240;23142;-82
2022/04/28 09:36:44;;;;;;;3.08;2.03;;;37.60;25.10;35.50;101586;;;;584309;241;24153;-87
2022/04/28 09:39:09;;;;;;;3.05;1.05;;;37.50;25.30;35.70;101573;;;;565239;250;23135;-83
2022/04/28 09:44:26;;;;;;;3.35;1.48;;;37.90;25.50;36.40;101582;;;;565194;250;23120;-83
2022/04/28 09:46:54;;;;;;;2.55;1.10;;;38.20;25.50;36.40;101589;;;;565418;250;24130;-86
2022/04/28 09:49:19;;;;;;;2.87;1.35;;;38.40;25.50;36.20;101576;;;;567853;245;23107;-83
2022/04/28 09:51:46;;;;;;;6.75;1.40;;;38.30;25.60;36.20;101594;;;;575234;245;23122;-81
2022/04/28 09:54:18;;;;;;;1.73;1.08;;;38.40;25.60;36.30;101587;;;;586088;241;23090;-78
2022/04/28 09:56:44;;;;;;;2.28;1.10;;;38.50;25.90;36.40;101595;;;;585807;241;24155;-79
2022/04/28 09:59:13;;;;;;;3.37;1.02;;;38.60;25.90;36.40;101583;;;;574222;245;23102;-78
2022/04/28 10:01:40;;;;;;;1.65;0.98;;;38.60;25.50;36.10;101582;;;;574323;246;23152;-78
2022/04/28 10:04:09;;;;;;;1.60;1.10;;;38.50;25.90;35.50;101587;;;;584321;242;23142;-79
2022/04/28 10:06:38;;;;;;;2.92;0.85;;;38.30;25.50;35.00;101579;;;;576069;243;23119;-84
2022/04/28 10:09:05;;;;;;;2.20;1.23;;;37.80;25.30;33.50;101584;;;;586244;245;23112;-77
2022/04/28 10:11:33;;;;;;;2.08;1.55;;;35.40;26.30;31.90;101577;;;;576430;245;23099;-77
2022/04/28 10:14:02;;;;;;;3.72;1.55;;;33.90;27.30;30.60;101578;;;;576660;245;24165;-79
2022/04/28 10:16:30;;;;;;;1.60;1.10;;;32.90;27.80;30.30;101578;;;;575201;245;23083;-83
2022/04/28 10:19:06;;;;;;;1.52;0.95;;;32.80;27.80;29.70;101572;;;;575965;245;23100;-81
2022/04/28 10:21:49;;;;;;;1.52;1.42;;;32.30;28.00;29.10;101578;;;;576800;245;23097;-79
2022/04/28 10:32:56;;;;;;;1.13;0.87;;;28.40;30.20;24.70;101570;;;;576073;245;23106;-79
2022/04/28 10:35:45;;;;;;;4.90;0.90;;;27.20;32.60;24.00;101565;;;;575874;245;24078;-79
2022/04/28 10:38:31;;;;;;;0.80;0.80;;;26.10;32.90;22.50;101573;;;;576358;245;24239;-86
2022/04/28 10:41:08;;;;;;;1.63;0.93;;;25.00;33.80;21.00;101567;;;;575947;245;24069;-79
2022/04/28 10:43:41;;;;;;;2.93;0.80;;;23.30;35.60;19.70;101555;;;;576538;245;24084;-84
2022/04/28 10:46:09;;;;;;;0.70;0.70;;;21.60;38.30;18.50;101558;;;;576658;245;24084;-78
2022/04/28 10:48:42;;;;;;;0.70;0.47;;;20.00;40.60;17.40;101562;;;;575939;245;24118;-82
2022/04/28 10:51:26;;;;;;;5.37;0.80;;;18.60;42.00;16.40;101553;;;;584393;245;24116;-79
2022/04/28 10:53:56;;;;;;;1.80;0.87;;;17.50;43.40;15.60;101549;;;;575686;245;24103;-78
2022/04/28 10:56:31;;;;;;;1.27;0.70;;;15.70;46.30;14.80;101547;;;;576056;245;24098;-78
2022/04/28 10:58:59;;;;;;;0.60;0.60;;;15.60;46.30;14.10;101549;;;;575786;245;24074;-83
2022/04/28 11:01:30;;;;;;;1.13;0.63;;;14.30;48.50;13.30;101535;;;;575888;245;24132;-81
2022/04/28 11:04:04;;;;;;;2.00;0.77;;;14.20;48.40;12.80;101535;;;;575570;245;24128;-82
2022/04/28 11:06:37;;;;;;;3.13;1.00;;;13.70;50.20;12.40;101532;;;;575562;245;24074;-82
2022/04/28 11:09:06;;;;;;;8.07;1.30;;;13.20;51.60;12.00;101536;;;;575662;245;24097;-81
2022/04/28 11:11:46;;;;;;;1.63;0.90;;;12.80;52.60;11.70;101534;;;;576198;245;24093;-79
2022/04/28 11:14:17;;;;;;;8.30;1.57;;;12.10;54.60;11.40;101532;;;;575878;245;24104;-80
2022/04/28 11:16:46;;;;;;;1.13;0.90;;;11.90;55.40;11.20;101533;;;;575789;245;24092;-78
2022/04/28 11:19:12;;;;;;;2.17;1.13;;;11.70;56.10;11.10;101535;;;;576456;240;24147;-83
2022/04/28 11:21:42;;;;;;;5.67;1.30;;;11.70;56.00;11.00;101533;;;;576292;245;24107;-82
2022/04/28 11:24:08;;;;;;;2.00;1.23;;;11.60;56.40;11.00;101535;;;;576109;245;24117;-79
2022/04/28 11:26:39;;;;;;;3.83;1.10;;;11.60;57.10;10.90;101537;;;;575957;245;24083;-78
2022/04/28 11:29:07;;;;;;;2.50;0.87;;;11.50;56.70;10.70;101532;;;;575971;245;24095;-80
2022/04/28 11:31:34;;;;;;;3.43;1.20;;;11.40;57.00;10.60;101545;;;;575543;245;24111;-80
2022/04/28 11:34:02;;;;;;;2.50;1.40;;;11.30;57.60;10.40;101534;;;;575984;245;24151;-82
2022/04/28 11:36:30;;;;;;;2.77;1.30;;;11.20;58.90;10.20;101531;;;;575717;245;24088;-81
2022/04/28 11:39:01;;;;;;;1.67;1.37;;;11.00;59.50;10.10;101530;;;;575541;245;24141;-77
2022/04/28 11:41:32;;;;;;;3.80;1.60;;;10.90;60.70;10.10;101533;;;;576126;245;24130;-78
2022/04/28 11:44:02;;;;;;;5.67;1.60;;;10.80;62.40;10.00;101542;;;;584993;245;24159;-82
2022/04/28 11:46:28;;;;;;;2.93;1.37;;;10.70;63.10;10.00;101537;;;;575373;245;24111;-77
2022/04/28 11:48:56;;;;;;;2.97;1.13;;;10.70;63.10;10.00;101531;;;;575952;245;24099;-78
2022/04/28 11:51:24;;;;;;;1.40;1.30;;;10.70;61.90;10.00;101532;;;;576145;245;24102;-80
2022/04/28 11:53:53;;;;;;;3.60;1.60;;;10.70;61.00;10.00;101530;;;;584627;245;24109;-78